Terminal Aerodrome Forecast
Issued by NWS

Home | Current Version | Previous Version | Graphics & Text | Print | Product List | Glossary On
Versions: 1 2 3 4 5 6 7 8 9 10 11 12 13 14 15 16 17 18 19
000
FTUS42 KMHX 232329
TAFISO
TAF
KISO 232329Z 2400/2424 10010G20KT 6SM -SHRA OVC050
     FM240400 10015G25KT 6SM -RA OVC025
     FM240900 11015G25KT 4SM RA OVC008
     FM241300 11015G25KT 2SM +SHRA OVC008
     FM241800 12015KT 6SM SHRA BKN007
     FM242100 13015KT 6SM SHRA BKN011
     FM242300 14010KT P6SM SCT011
      AMD LTD TO CLD VIS AND WIND=

USA.gov is the U.S. government's official web portal to all federal, state and local government web resources and services.